LFPM 271430Z AUTO 29011KT 9999 FEW043/// SCT050/// OVC110/// ///TCU 16/09 Q1018

Les avions qui composent notre flotte

Avion Robin DR400-180

Idéal pour les voyages

F-GDED


F-GDED Planche